KTPF/TPF METAR and TAF weather

Enter ICAO airport designator
Station Type Date Time Source
KTPF METAR 2021/09/24 00:15 UTC NOAA

KTPF 240015Z AUTO 34003KT 10SM BKN044 BKN060 OVC080 28/23 A2991 RMK AO2


Station Type Date Time Source
KTPF Decoded METAR 2021/09/24 00:15 UTC NOAA

Tampa, Peter O Knight Airport, FL, United States (KTPF) 27-54-56N 082-26-57W
Sep 23, 2021 - 08:15 PM EDT / 2021.09.24 0015 UTC
Wind: from the NNW (340 degrees) at 3 MPH (3 KT):0
Visibility: 10 mile(s):0
Sky conditions: overcast
Temperature: 82 F (28 C)
Dew Point: 73 F (23 C)
Relative Humidity: 74%
Pressure (altimeter): 29.91 in. Hg (1012 hPa)
ob: KTPF 240015Z AUTO 34003KT 10SM BKN044 BKN060 OVC080 28/23 A2991 RMK AO2
cycle: 0

Station Type Date Time Source
KTPF TAF UTC NOAA

Error!

Example: see airport list